sensor_id;sensor_type;location;lat;lon;timestamp;P1;durP1;ratioP1;P2;durP2;ratioP2
24161;SDS011;12318;51.262;7.066;2023-09-12T00:00:16;7.45;;;3.72;;
24161;SDS011;12318;51.262;7.066;2023-09-12T00:02:42;6.38;;;3.75;;
24161;SDS011;12318;51.262;7.066;2023-09-12T00:05:08;9.88;;;3.30;;
24161;SDS011;12318;51.262;7.066;2023-09-12T00:07:35;8.48;;;3.60;;
24161;SDS011;12318;51.262;7.066;2023-09-12T00:10:02;5.65;;;3.30;;
24161;SDS011;12318;51.262;7.066;2023-09-12T00:12:28;6.47;;;3.40;;
24161;SDS011;12318;51.262;7.066;2023-09-12T00:14:54;9.63;;;3.70;;
24161;SDS011;12318;51.262;7.066;2023-09-12T00:17:20;6.65;;;3.05;;
24161;SDS011;12318;51.262;7.066;2023-09-12T00:19:46;8.00;;;3.60;;
24161;SDS011;12318;51.262;7.066;2023-09-12T00:22:12;9.20;;;4.00;;
24161;SDS011;12318;51.262;7.066;2023-09-12T00:24:38;6.93;;;3.60;;
24161;SDS011;12318;51.262;7.066;2023-09-12T00:27:05;4.72;;;3.10;;
24161;SDS011;12318;51.262;7.066;2023-09-12T00:29:31;8.35;;;4.00;;
24161;SDS011;12318;51.262;7.066;2023-09-12T00:31:57;7.07;;;3.75;;
24161;SDS011;12318;51.262;7.066;2023-09-12T00:34:23;6.35;;;4.30;;
24161;SDS011;12318;51.262;7.066;2023-09-12T00:36:50;8.38;;;4.30;;
24161;SDS011;12318;51.262;7.066;2023-09-12T00:39:16;4.82;;;4.32;;
24161;SDS011;12318;51.262;7.066;2023-09-12T00:41:42;6.82;;;5.10;;
24161;SDS011;12318;51.262;7.066;2023-09-12T00:44:09;6.32;;;4.75;;
24161;SDS011;12318;51.262;7.066;2023-09-12T00:46:35;7.03;;;4.60;;
24161;SDS011;12318;51.262;7.066;2023-09-12T00:49:03;6.07;;;3.90;;
24161;SDS011;12318;51.262;7.066;2023-09-12T00:51:30;6.60;;;3.80;;
24161;SDS011;12318;51.262;7.066;2023-09-12T00:53:57;6.43;;;3.85;;
24161;SDS011;12318;51.262;7.066;2023-09-12T00:56:23;8.35;;;4.40;;
24161;SDS011;12318;51.262;7.066;2023-09-12T00:58:50;6.78;;;4.18;;
24161;SDS011;12318;51.262;7.066;2023-09-12T01:01:17;7.05;;;3.17;;
24161;SDS011;12318;51.262;7.066;2023-09-12T01:03:43;3.92;;;3.28;;
24161;SDS011;12318;51.262;7.066;2023-09-12T01:06:09;5.78;;;3.13;;
24161;SDS011;12318;51.262;7.066;2023-09-12T01:08:36;5.57;;;2.90;;
24161;SDS011;12318;51.262;7.066;2023-09-12T01:11:05;5.53;;;2.60;;
24161;SDS011;12318;51.262;7.066;2023-09-12T01:13:31;6.00;;;2.75;;
24161;SDS011;12318;51.262;7.066;2023-09-12T01:15:57;3.95;;;2.75;;
24161;SDS011;12318;51.262;7.066;2023-09-12T01:18:24;3.55;;;2.65;;
24161;SDS011;12318;51.262;7.066;2023-09-12T01:21:15;4.32;;;2.90;;
24161;SDS011;12318;51.262;7.066;2023-09-12T01:28:35;4.60;;;3.17;;
24161;SDS011;12318;51.262;7.066;2023-09-12T01:31:04;7.70;;;3.47;;
24161;SDS011;12318;51.262;7.066;2023-09-12T01:33:30;3.88;;;3.40;;
24161;SDS011;12318;51.262;7.066;2023-09-12T01:35:56;6.13;;;3.42;;
24161;SDS011;12318;51.262;7.066;2023-09-12T01:38:23;5.45;;;3.70;;
24161;SDS011;12318;51.262;7.066;2023-09-12T01:40:49;5.40;;;3.65;;
24161;SDS011;12318;51.262;7.066;2023-09-12T01:43:17;8.38;;;3.65;;
24161;SDS011;12318;51.262;7.066;2023-09-12T01:45:44;4.10;;;3.70;;
24161;SDS011;12318;51.262;7.066;2023-09-12T01:48:11;6.18;;;3.80;;
24161;SDS011;12318;51.262;7.066;2023-09-12T01:50:37;6.75;;;3.80;;
24161;SDS011;12318;51.262;7.066;2023-09-12T01:53:03;6.20;;;3.88;;
24161;SDS011;12318;51.262;7.066;2023-09-12T01:55:30;8.30;;;4.22;;
24161;SDS011;12318;51.262;7.066;2023-09-12T01:57:56;8.05;;;3.90;;
24161;SDS011;12318;51.262;7.066;2023-09-12T02:00:23;5.65;;;4.65;;
24161;SDS011;12318;51.262;7.066;2023-09-12T02:02:49;6.50;;;4.68;;
24161;SDS011;12318;51.262;7.066;2023-09-12T02:05:16;10.93;;;4.95;;
24161;SDS011;12318;51.262;7.066;2023-09-12T02:07:43;8.57;;;5.00;;
24161;SDS011;12318;51.262;7.066;2023-09-12T02:10:10;8.07;;;4.63;;
24161;SDS011;12318;51.262;7.066;2023-09-12T02:12:37;13.82;;;5.78;;
24161;SDS011;12318;51.262;7.066;2023-09-12T02:15:03;9.57;;;6.05;;
24161;SDS011;12318;51.262;7.066;2023-09-12T02:17:29;9.18;;;5.93;;
24161;SDS011;12318;51.262;7.066;2023-09-12T02:19:56;9.68;;;5.78;;
24161;SDS011;12318;51.262;7.066;2023-09-12T02:22:22;7.38;;;5.68;;
24161;SDS011;12318;51.262;7.066;2023-09-12T02:24:48;12.65;;;5.70;;
24161;SDS011;12318;51.262;7.066;2023-09-12T02:27:15;10.88;;;6.30;;
24161;SDS011;12318;51.262;7.066;2023-09-12T02:29:41;7.00;;;5.50;;
24161;SDS011;12318;51.262;7.066;2023-09-12T02:32:07;8.10;;;4.65;;
24161;SDS011;12318;51.262;7.066;2023-09-12T02:34:33;8.77;;;6.03;;
24161;SDS011;12318;51.262;7.066;2023-09-12T02:36:59;8.05;;;5.80;;
24161;SDS011;12318;51.262;7.066;2023-09-12T02:39:26;14.32;;;6.90;;
24161;SDS011;12318;51.262;7.066;2023-09-12T02:41:52;9.15;;;6.68;;
24161;SDS011;12318;51.262;7.066;2023-09-12T02:44:18;11.85;;;8.18;;
24161;SDS011;12318;51.262;7.066;2023-09-12T02:46:44;13.13;;;8.18;;
24161;SDS011;12318;51.262;7.066;2023-09-12T02:49:10;16.58;;;9.75;;
24161;SDS011;12318;51.262;7.066;2023-09-12T02:51:39;12.68;;;8.63;;
24161;SDS011;12318;51.262;7.066;2023-09-12T02:54:06;15.70;;;10.98;;
24161;SDS011;12318;51.262;7.066;2023-09-12T02:56:32;16.17;;;10.95;;
24161;SDS011;12318;51.262;7.066;2023-09-12T02:58:59;13.63;;;9.77;;
24161;SDS011;12318;51.262;7.066;2023-09-12T03:01:25;14.65;;;10.80;;
24161;SDS011;12318;51.262;7.066;2023-09-12T03:03:53;15.63;;;10.20;;
24161;SDS011;12318;51.262;7.066;2023-09-12T03:06:19;18.08;;;10.20;;
24161;SDS011;12318;51.262;7.066;2023-09-12T03:08:46;16.00;;;10.35;;
24161;SDS011;12318;51.262;7.066;2023-09-12T03:11:13;14.48;;;10.18;;
24161;SDS011;12318;51.262;7.066;2023-09-12T03:13:40;15.18;;;10.55;;
24161;SDS011;12318;51.262;7.066;2023-09-12T03:16:10;17.40;;;11.55;;
24161;SDS011;12318;51.262;7.066;2023-09-12T03:18:36;16.60;;;11.98;;
24161;SDS011;12318;51.262;7.066;2023-09-12T03:21:02;18.08;;;11.43;;
24161;SDS011;12318;51.262;7.066;2023-09-12T03:23:28;20.50;;;12.00;;
24161;SDS011;12318;51.262;7.066;2023-09-12T03:25:55;19.60;;;12.07;;
24161;SDS011;12318;51.262;7.066;2023-09-12T03:28:21;17.60;;;11.60;;
24161;SDS011;12318;51.262;7.066;2023-09-12T03:30:47;16.58;;;11.93;;
24161;SDS011;12318;51.262;7.066;2023-09-12T03:33:14;15.70;;;11.38;;
24161;SDS011;12318;51.262;7.066;2023-09-12T03:35:42;16.70;;;11.13;;
24161;SDS011;12318;51.262;7.066;2023-09-12T03:38:09;16.50;;;11.15;;
24161;SDS011;12318;51.262;7.066;2023-09-12T03:40:35;18.58;;;10.15;;
24161;SDS011;12318;51.262;7.066;2023-09-12T03:43:04;12.85;;;9.23;;
24161;SDS011;12318;51.262;7.066;2023-09-12T03:45:33;17.63;;;10.05;;
24161;SDS011;12318;51.262;7.066;2023-09-12T03:47:59;16.75;;;12.18;;
24161;SDS011;12318;51.262;7.066;2023-09-12T03:50:25;15.77;;;10.93;;
24161;SDS011;12318;51.262;7.066;2023-09-12T03:52:52;15.35;;;10.45;;
24161;SDS011;12318;51.262;7.066;2023-09-12T03:55:18;16.85;;;9.38;;
24161;SDS011;12318;51.262;7.066;2023-09-12T03:57:44;14.57;;;8.70;;
24161;SDS011;12318;51.262;7.066;2023-09-12T04:00:10;13.38;;;8.52;;
24161;SDS011;12318;51.262;7.066;2023-09-12T04:02:37;12.00;;;9.10;;
24161;SDS011;12318;51.262;7.066;2023-09-12T04:05:03;13.00;;;8.70;;
24161;SDS011;12318;51.262;7.066;2023-09-12T04:07:29;12.43;;;8.88;;
24161;SDS011;12318;51.262;7.066;2023-09-12T04:09:59;12.20;;;9.18;;
24161;SDS011;12318;51.262;7.066;2023-09-12T04:12:25;9.73;;;8.15;;
24161;SDS011;12318;51.262;7.066;2023-09-12T04:14:52;15.32;;;7.97;;
24161;SDS011;12318;51.262;7.066;2023-09-12T04:17:19;10.85;;;6.65;;
24161;SDS011;12318;51.262;7.066;2023-09-12T04:19:46;11.75;;;7.00;;
24161;SDS011;12318;51.262;7.066;2023-09-12T04:22:13;10.50;;;6.93;;
24161;SDS011;12318;51.262;7.066;2023-09-12T04:24:39;11.60;;;7.18;;
24161;SDS011;12318;51.262;7.066;2023-09-12T04:27:06;10.48;;;7.05;;
24161;SDS011;12318;51.262;7.066;2023-09-12T04:29:35;9.63;;;6.60;;
24161;SDS011;12318;51.262;7.066;2023-09-12T04:32:02;9.98;;;6.80;;
24161;SDS011;12318;51.262;7.066;2023-09-12T04:34:28;7.97;;;5.75;;
24161;SDS011;12318;51.262;7.066;2023-09-12T04:36:54;13.43;;;6.30;;
24161;SDS011;12318;51.262;7.066;2023-09-12T04:39:21;12.32;;;6.18;;
24161;SDS011;12318;51.262;7.066;2023-09-12T04:41:47;11.90;;;6.50;;
24161;SDS011;12318;51.262;7.066;2023-09-12T04:44:13;10.68;;;6.47;;
24161;SDS011;12318;51.262;7.066;2023-09-12T04:46:40;9.13;;;5.80;;
24161;SDS011;12318;51.262;7.066;2023-09-12T04:49:06;9.38;;;5.90;;
24161;SDS011;12318;51.262;7.066;2023-09-12T04:51:32;10.40;;;6.25;;
24161;SDS011;12318;51.262;7.066;2023-09-12T04:53:58;8.43;;;5.70;;
24161;SDS011;12318;51.262;7.066;2023-09-12T04:56:24;9.02;;;5.68;;
24161;SDS011;12318;51.262;7.066;2023-09-12T04:58:51;11.98;;;6.45;;
24161;SDS011;12318;51.262;7.066;2023-09-12T05:01:17;12.88;;;6.35;;
24161;SDS011;12318;51.262;7.066;2023-09-12T05:03:43;15.07;;;5.80;;
24161;SDS011;12318;51.262;7.066;2023-09-12T05:06:10;12.18;;;5.88;;
24161;SDS011;12318;51.262;7.066;2023-09-12T05:08:36;8.70;;;5.38;;
24161;SDS011;12318;51.262;7.066;2023-09-12T05:11:02;8.45;;;5.50;;
24161;SDS011;12318;51.262;7.066;2023-09-12T05:13:29;14.93;;;5.93;;
24161;SDS011;12318;51.262;7.066;2023-09-12T05:15:55;13.45;;;6.03;;
24161;SDS011;12318;51.262;7.066;2023-09-12T05:18:22;10.02;;;6.10;;
24161;SDS011;12318;51.262;7.066;2023-09-12T05:20:48;9.73;;;6.13;;
24161;SDS011;12318;51.262;7.066;2023-09-12T05:23:14;10.23;;;6.93;;
24161;SDS011;12318;51.262;7.066;2023-09-12T05:25:40;15.68;;;6.07;;
24161;SDS011;12318;51.262;7.066;2023-09-12T05:28:06;13.02;;;6.45;;
24161;SDS011;12318;51.262;7.066;2023-09-12T05:30:33;9.15;;;6.05;;
24161;SDS011;12318;51.262;7.066;2023-09-12T05:32:59;11.98;;;5.85;;
24161;SDS011;12318;51.262;7.066;2023-09-12T05:35:25;10.20;;;5.65;;
24161;SDS011;12318;51.262;7.066;2023-09-12T05:37:51;13.48;;;5.88;;
24161;SDS011;12318;51.262;7.066;2023-09-12T05:40:18;10.18;;;5.65;;
24161;SDS011;12318;51.262;7.066;2023-09-12T05:42:44;9.43;;;6.20;;
24161;SDS011;12318;51.262;7.066;2023-09-12T05:45:10;12.95;;;6.60;;
24161;SDS011;12318;51.262;7.066;2023-09-12T05:47:36;9.45;;;6.28;;
24161;SDS011;12318;51.262;7.066;2023-09-12T05:50:02;17.52;;;6.85;;
24161;SDS011;12318;51.262;7.066;2023-09-12T05:52:34;10.15;;;6.47;;
24161;SDS011;12318;51.262;7.066;2023-09-12T05:55:01;10.07;;;6.05;;
24161;SDS011;12318;51.262;7.066;2023-09-12T05:57:27;13.75;;;7.82;;
24161;SDS011;12318;51.262;7.066;2023-09-12T05:59:58;12.00;;;7.53;;
24161;SDS011;12318;51.262;7.066;2023-09-12T06:02:25;13.38;;;8.05;;
24161;SDS011;12318;51.262;7.066;2023-09-12T06:04:51;10.95;;;7.15;;
24161;SDS011;12318;51.262;7.066;2023-09-12T06:07:17;8.27;;;5.68;;
24161;SDS011;12318;51.262;7.066;2023-09-12T06:09:43;9.45;;;6.43;;
24161;SDS011;12318;51.262;7.066;2023-09-12T06:12:09;14.02;;;6.72;;
24161;SDS011;12318;51.262;7.066;2023-09-12T06:14:35;8.23;;;6.65;;
24161;SDS011;12318;51.262;7.066;2023-09-12T06:17:01;10.57;;;6.07;;
24161;SDS011;12318;51.262;7.066;2023-09-12T06:19:28;9.35;;;7.30;;
24161;SDS011;12318;51.262;7.066;2023-09-12T06:21:54;12.38;;;7.88;;
24161;SDS011;12318;51.262;7.066;2023-09-12T06:24:20;13.25;;;9.77;;
24161;SDS011;12318;51.262;7.066;2023-09-12T06:26:47;18.17;;;10.63;;
24161;SDS011;12318;51.262;7.066;2023-09-12T06:29:13;9.95;;;8.15;;
24161;SDS011;12318;51.262;7.066;2023-09-12T06:31:40;6.82;;;5.65;;
24161;SDS011;12318;51.262;7.066;2023-09-12T06:34:06;7.57;;;5.28;;
24161;SDS011;12318;51.262;7.066;2023-09-12T06:36:32;10.02;;;5.20;;
24161;SDS011;12318;51.262;7.066;2023-09-12T06:38:59;11.10;;;6.07;;
24161;SDS011;12318;51.262;7.066;2023-09-12T06:41:26;12.05;;;8.10;;
24161;SDS011;12318;51.262;7.066;2023-09-12T06:43:52;11.35;;;8.68;;
24161;SDS011;12318;51.262;7.066;2023-09-12T06:46:18;12.07;;;8.13;;
24161;SDS011;12318;51.262;7.066;2023-09-12T06:48:45;17.40;;;8.82;;
24161;SDS011;12318;51.262;7.066;2023-09-12T06:51:11;11.57;;;8.85;;
24161;SDS011;12318;51.262;7.066;2023-09-12T06:53:37;11.45;;;7.90;;
24161;SDS011;12318;51.262;7.066;2023-09-12T06:56:04;17.50;;;9.10;;
24161;SDS011;12318;51.262;7.066;2023-09-12T06:58:31;19.05;;;10.25;;
24161;SDS011;12318;51.262;7.066;2023-09-12T07:01:03;14.88;;;9.77;;
24161;SDS011;12318;51.262;7.066;2023-09-12T07:03:30;17.05;;;11.98;;
24161;SDS011;12318;51.262;7.066;2023-09-12T07:05:56;14.02;;;10.82;;
24161;SDS011;12318;51.262;7.066;2023-09-12T07:08:23;17.20;;;11.10;;
24161;SDS011;12318;51.262;7.066;2023-09-12T07:10:49;13.68;;;9.93;;
24161;SDS011;12318;51.262;7.066;2023-09-12T07:13:15;13.55;;;10.45;;
24161;SDS011;12318;51.262;7.066;2023-09-12T07:15:41;13.65;;;9.43;;
24161;SDS011;12318;51.262;7.066;2023-09-12T07:18:07;12.18;;;9.43;;
24161;SDS011;12318;51.262;7.066;2023-09-12T07:20:34;12.27;;;9.20;;
24161;SDS011;12318;51.262;7.066;2023-09-12T07:23:00;14.38;;;9.35;;
24161;SDS011;12318;51.262;7.066;2023-09-12T07:25:26;10.05;;;8.15;;
24161;SDS011;12318;51.262;7.066;2023-09-12T07:27:52;10.93;;;7.80;;
24161;SDS011;12318;51.262;7.066;2023-09-12T07:30:18;10.88;;;7.22;;
24161;SDS011;12318;51.262;7.066;2023-09-12T07:32:45;9.13;;;7.32;;
24161;SDS011;12318;51.262;7.066;2023-09-12T07:35:11;10.23;;;7.50;;
24161;SDS011;12318;51.262;7.066;2023-09-12T07:37:37;10.82;;;7.55;;
24161;SDS011;12318;51.262;7.066;2023-09-12T07:40:03;9.15;;;7.43;;
24161;SDS011;12318;51.262;7.066;2023-09-12T07:42:34;9.77;;;7.35;;
24161;SDS011;12318;51.262;7.066;2023-09-12T07:45:01;13.18;;;6.85;;
24161;SDS011;12318;51.262;7.066;2023-09-12T07:47:28;11.82;;;7.72;;
24161;SDS011;12318;51.262;7.066;2023-09-12T07:49:54;8.90;;;7.03;;
24161;SDS011;12318;51.262;7.066;2023-09-12T07:52:20;9.65;;;6.90;;
24161;SDS011;12318;51.262;7.066;2023-09-12T07:54:47;10.55;;;7.10;;
24161;SDS011;12318;51.262;7.066;2023-09-12T07:57:13;12.23;;;7.22;;
24161;SDS011;12318;51.262;7.066;2023-09-12T07:59:39;11.05;;;6.97;;
24161;SDS011;12318;51.262;7.066;2023-09-12T08:02:05;8.45;;;6.32;;
24161;SDS011;12318;51.262;7.066;2023-09-12T08:04:31;12.02;;;6.05;;
24161;SDS011;12318;51.262;7.066;2023-09-12T08:06:57;6.45;;;5.55;;
24161;SDS011;12318;51.262;7.066;2023-09-12T08:09:23;8.60;;;5.50;;
24161;SDS011;12318;51.262;7.066;2023-09-12T08:11:49;8.70;;;4.90;;
24161;SDS011;12318;51.262;7.066;2023-09-12T08:14:15;14.25;;;4.70;;
24161;SDS011;12318;51.262;7.066;2023-09-12T08:16:41;5.13;;;4.40;;
24161;SDS011;12318;51.262;7.066;2023-09-12T08:19:08;7.22;;;4.50;;
24161;SDS011;12318;51.262;7.066;2023-09-12T08:21:34;7.25;;;4.45;;
24161;SDS011;12318;51.262;7.066;2023-09-12T08:24:00;6.28;;;4.35;;
24161;SDS011;12318;51.262;7.066;2023-09-12T08:26:26;5.35;;;4.05;;
24161;SDS011;12318;51.262;7.066;2023-09-12T08:28:54;6.40;;;4.53;;
24161;SDS011;12318;51.262;7.066;2023-09-12T08:31:20;6.85;;;4.38;;
24161;SDS011;12318;51.262;7.066;2023-09-12T08:33:46;9.60;;;4.72;;
24161;SDS011;12318;51.262;7.066;2023-09-12T08:36:12;9.48;;;4.60;;
24161;SDS011;12318;51.262;7.066;2023-09-12T08:38:38;10.20;;;5.07;;
24161;SDS011;12318;51.262;7.066;2023-09-12T08:41:05;7.15;;;4.53;;
24161;SDS011;12318;51.262;7.066;2023-09-12T08:43:31;6.95;;;4.40;;
24161;SDS011;12318;51.262;7.066;2023-09-12T08:45:58;7.53;;;4.43;;
24161;SDS011;12318;51.262;7.066;2023-09-12T08:48:24;6.43;;;4.03;;
24161;SDS011;12318;51.262;7.066;2023-09-12T08:50:50;6.38;;;4.15;;
24161;SDS011;12318;51.262;7.066;2023-09-12T08:53:17;6.38;;;3.80;;
24161;SDS011;12318;51.262;7.066;2023-09-12T08:55:47;8.77;;;4.10;;
24161;SDS011;12318;51.262;7.066;2023-09-12T08:58:13;5.70;;;3.95;;
24161;SDS011;12318;51.262;7.066;2023-09-12T09:00:40;8.18;;;4.60;;
24161;SDS011;12318;51.262;7.066;2023-09-12T09:03:07;8.50;;;4.05;;
24161;SDS011;12318;51.262;7.066;2023-09-12T09:05:33;7.45;;;4.38;;
24161;SDS011;12318;51.262;7.066;2023-09-12T09:08:01;4.72;;;3.90;;
24161;SDS011;12318;51.262;7.066;2023-09-12T09:10:28;8.45;;;4.50;;
24161;SDS011;12318;51.262;7.066;2023-09-12T09:12:57;8.32;;;4.30;;
24161;SDS011;12318;51.262;7.066;2023-09-12T09:17:49;6.57;;;3.90;;
24161;SDS011;12318;51.262;7.066;2023-09-12T09:20:27;5.25;;;3.78;;
24161;SDS011;12318;51.262;7.066;2023-09-12T09:23:00;5.10;;;3.65;;
24161;SDS011;12318;51.262;7.066;2023-09-12T09:25:29;9.80;;;3.95;;
24161;SDS011;12318;51.262;7.066;2023-09-12T09:27:56;3.75;;;3.00;;
24161;SDS011;12318;51.262;7.066;2023-09-12T09:33:06;6.35;;;3.42;;
24161;SDS011;12318;51.262;7.066;2023-09-12T09:35:32;7.15;;;3.28;;
24161;SDS011;12318;51.262;7.066;2023-09-12T09:37:59;6.68;;;3.50;;
24161;SDS011;12318;51.262;7.066;2023-09-12T09:40:25;4.70;;;2.95;;
24161;SDS011;12318;51.262;7.066;2023-09-12T09:43:00;6.15;;;3.53;;
24161;SDS011;12318;51.262;7.066;2023-09-12T09:45:27;6.47;;;4.05;;
24161;SDS011;12318;51.262;7.066;2023-09-12T09:47:56;6.60;;;3.67;;
24161;SDS011;12318;51.262;7.066;2023-09-12T09:50:23;7.72;;;3.80;;
24161;SDS011;12318;51.262;7.066;2023-09-12T09:52:54;5.75;;;3.67;;
24161;SDS011;12318;51.262;7.066;2023-09-12T09:55:21;6.68;;;3.83;;
24161;SDS011;12318;51.262;7.066;2023-09-12T09:57:48;7.03;;;3.65;;
24161;SDS011;12318;51.262;7.066;2023-09-12T10:00:14;7.57;;;3.83;;
24161;SDS011;12318;51.262;7.066;2023-09-12T10:02:40;5.72;;;4.20;;
24161;SDS011;12318;51.262;7.066;2023-09-12T10:05:07;7.03;;;4.35;;
24161;SDS011;12318;51.262;7.066;2023-09-12T10:07:37;6.10;;;4.00;;
24161;SDS011;12318;51.262;7.066;2023-09-12T10:10:03;5.90;;;4.00;;
24161;SDS011;12318;51.262;7.066;2023-09-12T10:12:41;7.90;;;3.95;;
24161;SDS011;12318;51.262;7.066;2023-09-12T10:15:09;6.80;;;4.53;;
24161;SDS011;12318;51.262;7.066;2023-09-12T10:17:37;6.88;;;4.55;;
24161;SDS011;12318;51.262;7.066;2023-09-12T10:20:08;6.07;;;4.88;;
24161;SDS011;12318;51.262;7.066;2023-09-12T10:22:39;6.32;;;4.90;;
24161;SDS011;12318;51.262;7.066;2023-09-12T10:25:06;8.10;;;4.72;;
24161;SDS011;12318;51.262;7.066;2023-09-12T10:27:33;8.45;;;5.13;;
24161;SDS011;12318;51.262;7.066;2023-09-12T10:29:59;7.68;;;4.40;;
24161;SDS011;12318;51.262;7.066;2023-09-12T10:32:26;7.22;;;4.75;;
24161;SDS011;12318;51.262;7.066;2023-09-12T10:34:55;10.10;;;5.40;;
24161;SDS011;12318;51.262;7.066;2023-09-12T10:37:24;7.22;;;4.80;;
24161;SDS011;12318;51.262;7.066;2023-09-12T10:39:53;8.52;;;4.80;;
24161;SDS011;12318;51.262;7.066;2023-09-12T10:42:19;7.18;;;4.78;;
24161;SDS011;12318;51.262;7.066;2023-09-12T10:44:46;7.10;;;3.75;;
24161;SDS011;12318;51.262;7.066;2023-09-12T10:47:13;5.97;;;3.92;;
24161;SDS011;12318;51.262;7.066;2023-09-12T10:49:39;6.63;;;3.60;;
24161;SDS011;12318;51.262;7.066;2023-09-12T10:52:08;5.85;;;4.25;;
24161;SDS011;12318;51.262;7.066;2023-09-12T10:54:36;9.57;;;4.22;;
24161;SDS011;12318;51.262;7.066;2023-09-12T10:57:06;6.53;;;3.90;;
24161;SDS011;12318;51.262;7.066;2023-09-12T10:59:32;4.35;;;3.40;;
24161;SDS011;12318;51.262;7.066;2023-09-12T11:04:46;5.05;;;3.28;;
24161;SDS011;12318;51.262;7.066;2023-09-12T11:12:41;5.20;;;3.20;;
24161;SDS011;12318;51.262;7.066;2023-09-12T11:15:08;9.40;;;3.50;;
24161;SDS011;12318;51.262;7.066;2023-09-12T11:17:38;3.17;;;2.50;;
24161;SDS011;12318;51.262;7.066;2023-09-12T11:20:05;6.90;;;2.97;;
24161;SDS011;12318;51.262;7.066;2023-09-12T11:22:36;3.95;;;3.10;;
24161;SDS011;12318;51.262;7.066;2023-09-12T11:25:04;3.70;;;2.72;;
24161;SDS011;12318;51.262;7.066;2023-09-12T11:27:31;4.93;;;2.80;;
24161;SDS011;12318;51.262;7.066;2023-09-12T11:30:07;6.60;;;2.80;;
24161;SDS011;12318;51.262;7.066;2023-09-12T11:32:35;5.15;;;2.70;;
24161;SDS011;12318;51.262;7.066;2023-09-12T11:35:05;6.38;;;2.90;;
24161;SDS011;12318;51.262;7.066;2023-09-12T11:37:32;4.15;;;3.30;;
24161;SDS011;12318;51.262;7.066;2023-09-12T11:40:01;5.10;;;3.25;;
24161;SDS011;12318;51.262;7.066;2023-09-12T11:42:27;4.60;;;3.25;;
24161;SDS011;12318;51.262;7.066;2023-09-12T11:44:53;3.67;;;3.00;;
24161;SDS011;12318;51.262;7.066;2023-09-12T11:47:19;5.68;;;3.30;;
24161;SDS011;12318;51.262;7.066;2023-09-12T11:49:46;4.55;;;3.10;;
24161;SDS011;12318;51.262;7.066;2023-09-12T11:52:12;4.93;;;2.70;;
24161;SDS011;12318;51.262;7.066;2023-09-12T11:54:40;6.32;;;3.47;;
24161;SDS011;12318;51.262;7.066;2023-09-12T11:57:06;3.80;;;3.15;;
24161;SDS011;12318;51.262;7.066;2023-09-12T11:59:36;5.35;;;3.53;;
24161;SDS011;12318;51.262;7.066;2023-09-12T12:02:05;8.18;;;3.13;;
24161;SDS011;12318;51.262;7.066;2023-09-12T12:04:31;6.03;;;4.18;;
24161;SDS011;12318;51.262;7.066;2023-09-12T12:06:59;5.03;;;3.10;;
24161;SDS011;12318;51.262;7.066;2023-09-12T12:09:26;4.50;;;3.70;;
24161;SDS011;12318;51.262;7.066;2023-09-12T12:11:52;6.45;;;4.00;;
24161;SDS011;12318;51.262;7.066;2023-09-12T12:14:19;6.85;;;4.35;;
24161;SDS011;12318;51.262;7.066;2023-09-12T12:16:46;5.22;;;3.80;;
24161;SDS011;12318;51.262;7.066;2023-09-12T12:19:13;6.38;;;3.63;;
24161;SDS011;12318;51.262;7.066;2023-09-12T12:21:39;8.10;;;4.40;;
24161;SDS011;12318;51.262;7.066;2023-09-12T12:24:10;4.68;;;3.97;;
24161;SDS011;12318;51.262;7.066;2023-09-12T12:26:37;6.50;;;4.28;;
24161;SDS011;12318;51.262;7.066;2023-09-12T12:29:04;6.60;;;4.20;;
24161;SDS011;12318;51.262;7.066;2023-09-12T12:31:30;4.53;;;3.55;;
24161;SDS011;12318;51.262;7.066;2023-09-12T12:33:57;6.00;;;3.97;;
24161;SDS011;12318;51.262;7.066;2023-09-12T12:36:24;4.82;;;3.70;;
24161;SDS011;12318;51.262;7.066;2023-09-12T12:38:52;5.43;;;3.92;;
24161;SDS011;12318;51.262;7.066;2023-09-12T12:41:22;8.15;;;3.97;;
24161;SDS011;12318;51.262;7.066;2023-09-12T12:43:49;6.75;;;3.83;;
24161;SDS011;12318;51.262;7.066;2023-09-12T12:46:24;7.22;;;3.95;;
24161;SDS011;12318;51.262;7.066;2023-09-12T12:48:50;7.38;;;4.22;;
24161;SDS011;12318;51.262;7.066;2023-09-12T12:51:17;5.90;;;4.65;;
24161;SDS011;12318;51.262;7.066;2023-09-12T12:53:44;6.65;;;4.22;;
24161;SDS011;12318;51.262;7.066;2023-09-12T12:56:14;7.07;;;5.13;;
24161;SDS011;12318;51.262;7.066;2023-09-12T12:58:47;4.60;;;4.18;;
24161;SDS011;12318;51.262;7.066;2023-09-12T13:01:14;7.30;;;4.32;;
24161;SDS011;12318;51.262;7.066;2023-09-12T13:03:40;7.80;;;4.72;;
24161;SDS011;12318;51.262;7.066;2023-09-12T13:06:06;7.50;;;4.13;;
24161;SDS011;12318;51.262;7.066;2023-09-12T13:08:41;5.13;;;4.20;;
24161;SDS011;12318;51.262;7.066;2023-09-12T13:11:08;6.97;;;4.50;;
24161;SDS011;12318;51.262;7.066;2023-09-12T13:13:34;7.57;;;4.97;;
24161;SDS011;12318;51.262;7.066;2023-09-12T13:16:01;9.32;;;3.95;;
24161;SDS011;12318;51.262;7.066;2023-09-12T13:18:31;7.50;;;4.40;;
24161;SDS011;12318;51.262;7.066;2023-09-12T13:20:57;7.70;;;4.05;;
24161;SDS011;12318;51.262;7.066;2023-09-12T13:23:23;7.38;;;3.78;;
24161;SDS011;12318;51.262;7.066;2023-09-12T13:25:50;10.68;;;4.63;;
24161;SDS011;12318;51.262;7.066;2023-09-12T13:28:16;8.02;;;3.90;;
24161;SDS011;12318;51.262;7.066;2023-09-12T13:30:42;9.10;;;3.88;;
24161;SDS011;12318;51.262;7.066;2023-09-12T13:33:09;5.20;;;3.50;;
24161;SDS011;12318;51.262;7.066;2023-09-12T13:35:36;6.47;;;3.72;;
24161;SDS011;12318;51.262;7.066;2023-09-12T13:38:03;6.65;;;4.40;;
24161;SDS011;12318;51.262;7.066;2023-09-12T13:40:35;8.95;;;4.40;;
24161;SDS011;12318;51.262;7.066;2023-09-12T13:43:02;8.98;;;5.20;;
24161;SDS011;12318;51.262;7.066;2023-09-12T13:45:28;6.18;;;4.05;;
24161;SDS011;12318;51.262;7.066;2023-09-12T13:47:54;6.10;;;3.90;;
24161;SDS011;12318;51.262;7.066;2023-09-12T13:50:21;5.85;;;3.60;;
24161;SDS011;12318;51.262;7.066;2023-09-12T13:52:48;5.20;;;3.55;;
24161;SDS011;12318;51.262;7.066;2023-09-12T13:55:14;5.82;;;4.30;;
24161;SDS011;12318;51.262;7.066;2023-09-12T13:57:41;5.18;;;3.78;;
24161;SDS011;12318;51.262;7.066;2023-09-12T14:00:10;6.40;;;4.10;;
24161;SDS011;12318;51.262;7.066;2023-09-12T14:02:36;9.75;;;4.60;;
24161;SDS011;12318;51.262;7.066;2023-09-12T14:05:02;5.05;;;3.72;;
24161;SDS011;12318;51.262;7.066;2023-09-12T14:07:28;7.93;;;3.85;;
24161;SDS011;12318;51.262;7.066;2023-09-12T14:09:54;8.48;;;5.13;;
24161;SDS011;12318;51.262;7.066;2023-09-12T14:12:22;9.57;;;4.30;;
24161;SDS011;12318;51.262;7.066;2023-09-12T14:14:48;7.32;;;4.15;;
24161;SDS011;12318;51.262;7.066;2023-09-12T14:17:15;6.47;;;4.03;;
24161;SDS011;12318;51.262;7.066;2023-09-12T14:19:41;9.57;;;5.20;;
24161;SDS011;12318;51.262;7.066;2023-09-12T14:22:07;7.30;;;4.53;;
24161;SDS011;12318;51.262;7.066;2023-09-12T14:24:33;7.38;;;4.03;;
24161;SDS011;12318;51.262;7.066;2023-09-12T14:26:59;6.72;;;3.88;;
24161;SDS011;12318;51.262;7.066;2023-09-12T14:29:25;6.47;;;4.43;;
24161;SDS011;12318;51.262;7.066;2023-09-12T14:31:55;5.25;;;3.83;;
24161;SDS011;12318;51.262;7.066;2023-09-12T14:34:24;4.97;;;3.97;;
24161;SDS011;12318;51.262;7.066;2023-09-12T14:36:55;7.60;;;4.05;;
24161;SDS011;12318;51.262;7.066;2023-09-12T14:39:21;5.80;;;3.40;;
24161;SDS011;12318;51.262;7.066;2023-09-12T14:41:47;5.80;;;3.78;;
24161;SDS011;12318;51.262;7.066;2023-09-12T14:44:20;4.40;;;3.45;;
24161;SDS011;12318;51.262;7.066;2023-09-12T14:46:46;6.15;;;3.47;;
24161;SDS011;12318;51.262;7.066;2023-09-12T14:49:12;6.65;;;3.58;;
24161;SDS011;12318;51.262;7.066;2023-09-12T14:51:38;6.18;;;3.20;;
24161;SDS011;12318;51.262;7.066;2023-09-12T14:54:05;5.72;;;2.95;;
24161;SDS011;12318;51.262;7.066;2023-09-12T14:56:32;7.20;;;3.50;;
24161;SDS011;12318;51.262;7.066;2023-09-12T14:58:59;4.80;;;3.00;;